Time;durP1;ratioP1;P1;durP2;ratioP2;P2;SDS_P1;SDS_P2;PMS_P1;PMS_P2;Temp;Humidity;BMP_temperature;BMP_pressure;BME280_temperature;BME280_humidity;BME280_pressure;Samples;Min_cycle;Max_cycle;Signal;HPM_P1;HPM_P2
2022/05/06 04:28:21;;;;;;;;;;;;;;;11.66;100.00;98493.09;4873151;29;19975;-75
2022/05/06 04:30:53;;;;;;;;;;;;;;;11.68;100.00;98493.53;4856873;29;19960;-75
2022/05/06 04:33:21;;;;;;;;;;;;;;;11.66;100.00;98495.88;4845871;29;19959;-74
2022/05/06 04:35:51;;;;;;;;;;;;;;;11.61;100.00;98487.91;4845678;29;20253;-75
2022/05/06 04:38:23;;;;;;;;;;;;;;;11.69;100.00;98497.13;4861411;29;19948;-75
2022/05/06 04:40:53;;;;;;;;;;;;;;;11.69;100.00;98500.72;4845819;29;19972;-74
2022/05/06 04:43:23;;;;;;;;;;;;;;;11.62;100.00;98503.50;4860787;29;19949;-75
2022/05/06 04:45:53;;;;;;;;;;;;;;;11.59;100.00;98492.31;4845690;29;19954;-75
2022/05/06 04:48:22;;;;;;;;;;;;;;;11.61;100.00;98507.53;4845416;29;19953;-75
2022/05/06 04:50:50;;;;;;;;;;;;;;;11.54;100.00;98510.28;4846664;29;19946;-75
2022/05/06 04:53:17;;;;;;;;;;;;;;;11.54;100.00;98506.72;4860518;29;19961;-75
2022/05/06 04:55:48;;;;;;;;;;;;;;;11.59;100.00;98515.50;4861072;29;19953;-75
2022/05/06 04:58:19;;;;;;;;;;;;;;;11.60;100.00;98511.50;4860596;29;20343;-75
2022/05/06 05:00:47;;;;;;;;;;;;;;;11.56;100.00;98501.50;4859159;29;19977;-75
2022/05/06 05:03:15;;;;;;;;;;;;;;;11.56;100.00;98507.91;4860119;29;20347;-75
2022/05/06 05:05:45;;;;;;;;;;;;;;;11.53;100.00;98514.31;4844640;29;19950;-75
2022/05/06 05:08:13;;;;;;;;;;;;;;;11.55;100.00;98505.50;4844175;29;19951;-75
2022/05/06 05:10:46;;;;;;;;;;;;;;;11.54;100.00;98515.13;4844793;29;20334;-74
2022/05/06 05:13:14;;;;;;;;;;;;;;;11.55;100.00;98516.69;4830766;29;19952;-75
2022/05/06 05:15:42;;;;;;;;;;;;;;;11.61;100.00;98509.50;4840866;29;19988;-75
2022/05/06 05:18:09;;;;;;;;;;;;;;;11.63;100.00;98513.53;4826610;29;19952;-75
2022/05/06 05:20:38;;;;;;;;;;;;;;;11.59;100.00;98506.31;4854032;29;20469;-75
2022/05/06 05:23:06;;;;;;;;;;;;;;;11.53;100.00;98507.91;4858839;29;20352;-75
2022/05/06 05:25:36;;;;;;;;;;;;;;;11.57;100.00;98508.69;4858155;29;19970;-75
2022/05/06 05:28:05;;;;;;;;;;;;;;;11.59;100.00;98511.91;4837663;29;20263;-75
2022/05/06 05:30:37;;;;;;;;;;;;;;;11.54;100.00;98515.13;4858639;29;20560;-76
2022/05/06 05:33:09;;;;;;;;;;;;;;;11.54;100.00;98515.88;4844179;29;20225;-75
2022/05/06 05:35:42;;;;;;;;;;;;;;;11.52;100.00;98517.50;4860274;29;19949;-75
2022/05/06 05:38:11;;;;;;;;;;;;;;;11.52;100.00;98512.69;4860461;29;19959;-75
2022/05/06 05:40:41;;;;;;;;;;;;;;;11.62;100.00;98508.28;4859434;29;19958;-75
2022/05/06 05:48:19;;;;;;;;;;;;;;;11.53;100.00;98510.69;4859792;29;19959;-75
2022/05/06 05:48:51;;;;;;;;;;;;;;;11.53;100.00;98511.50;4859413;29;19950;-75
2022/05/06 05:51:19;;;;;;;;;;;;;;;11.52;100.00;98514.69;4858971;29;19960;-75
2022/05/06 05:53:51;;;;;;;;;;;;;;;11.49;100.00;98512.72;4861030;29;20378;-75
2022/05/06 05:56:20;;;;;;;;;;;;;;;11.52;100.00;98523.09;4830000;29;19957;-75
2022/05/06 05:58:50;;;;;;;;;;;;;;;11.51;100.00;98518.72;4842274;29;20246;-75
2022/05/06 06:01:20;;;;;;;;;;;;;;;11.60;100.00;98527.50;4843130;29;20368;-75
2022/05/06 06:03:48;;;;;;;;;;;;;;;11.51;100.00;98532.72;4844276;29;19962;-75
2022/05/06 06:06:15;;;;;;;;;;;;;;;11.49;100.00;98521.13;4858339;29;19951;-75
2022/05/06 06:08:47;;;;;;;;;;;;;;;11.55;100.00;98522.31;4856635;29;19958;-75
2022/05/06 06:11:14;;;;;;;;;;;;;;;11.51;100.00;98532.72;4857558;29;19954;-75
2022/05/06 06:13:45;;;;;;;;;;;;;;;11.57;100.00;98533.91;4841700;29;19957;-75
2022/05/06 06:16:17;;;;;;;;;;;;;;;11.51;100.00;98527.09;4856676;29;19959;-75
2022/05/06 06:18:46;;;;;;;;;;;;;;;11.50;100.00;98523.50;4843881;29;19957;-75
2022/05/06 06:21:16;;;;;;;;;;;;;;;11.60;100.00;98525.50;4844189;29;20240;-75
2022/05/06 06:23:44;;;;;;;;;;;;;;;11.56;100.00;98535.94;4843152;29;19950;-75
2022/05/06 06:26:11;;;;;;;;;;;;;;;11.55;100.00;98533.50;4840718;29;19951;-75
2022/05/06 06:28:41;;;;;;;;;;;;;;;11.66;100.00;98531.53;4846168;29;19956;-75
2022/05/06 06:31:12;;;;;;;;;;;;;;;11.61;100.00;98537.53;4843492;29;19967;-75
2022/05/06 06:33:41;;;;;;;;;;;;;;;11.60;100.00;98541.50;4861554;29;19958;-74
2022/05/06 06:36:13;;;;;;;;;;;;;;;11.61;100.00;98535.53;4877373;29;19951;-75
2022/05/06 06:38:42;;;;;;;;;;;;;;;11.60;100.00;98536.72;4855180;29;19959;-75
2022/05/06 06:41:09;;;;;;;;;;;;;;;11.64;100.00;98545.13;4845263;29;19957;-75
2022/05/06 06:43:39;;;;;;;;;;;;;;;11.55;100.00;98547.50;4864733;29;19958;-75
2022/05/06 06:46:16;;;;;;;;;;;;;;;11.58;100.00;98541.13;4877030;29;19960;-75
2022/05/06 06:49:10;;;;;;;;;;;;;;;11.56;100.00;98547.13;4859427;29;20333;-75
2022/05/06 06:51:56;;;;;;;;;;;;;;;11.60;100.00;98553.53;4861616;29;19948;-74
2022/05/06 06:54:23;;;;;;;;;;;;;;;11.62;100.00;98561.50;4861945;29;19952;-74
2022/05/06 06:56:50;;;;;;;;;;;;;;;11.63;100.00;98563.13;4862577;29;19957;-75
2022/05/06 06:59:17;;;;;;;;;;;;;;;11.65;100.00;98555.13;4855402;29;19955;-75
2022/05/06 07:01:45;;;;;;;;;;;;;;;11.58;100.00;98543.91;4862022;29;19977;-75
2022/05/06 07:04:15;;;;;;;;;;;;;;;11.56;100.00;98551.91;4861891;29;20247;-75
2022/05/06 07:12:14;;;;;;;;;;;;;;;11.65;100.00;98560.72;4847704;29;19957;-75
2022/05/06 07:14:42;;;;;;;;;;;;;;;11.63;100.00;98547.13;4860787;29;19953;-75
2022/05/06 07:17:09;;;;;;;;;;;;;;;11.55;100.00;98553.91;4862000;29;20001;-75
2022/05/06 07:19:36;;;;;;;;;;;;;;;11.60;100.00;98558.31;4862052;29;19950;-75
2022/05/06 07:22:04;;;;;;;;;;;;;;;11.59;100.00;98557.50;4862472;29;19972;-75
2022/05/06 07:24:36;;;;;;;;;;;;;;;11.55;100.00;98562.31;4845708;29;19988;-75
2022/05/06 07:27:04;;;;;;;;;;;;;;;11.56;100.00;98563.94;4861986;29;19969;-75
2022/05/06 07:29:31;;;;;;;;;;;;;;;11.52;100.00;98571.50;4861470;29;19960;-75
2022/05/06 07:31:58;;;;;;;;;;;;;;;11.47;100.00;98571.91;4861340;29;19954;-75
2022/05/06 07:34:25;;;;;;;;;;;;;;;11.48;100.00;98570.72;4862162;29;19958;-75
2022/05/06 07:36:53;;;;;;;;;;;;;;;11.45;100.00;98562.28;4861536;29;19949;-75
2022/05/06 07:39:20;;;;;;;;;;;;;;;11.40;100.00;98573.88;4863445;29;20005;-75
2022/05/06 07:41:50;;;;;;;;;;;;;;;11.44;100.00;98569.09;4865314;29;19953;-75
2022/05/06 07:44:17;;;;;;;;;;;;;;;11.46;100.00;98575.09;4865221;29;19948;-75
2022/05/06 07:46:45;;;;;;;;;;;;;;;11.42;100.00;98571.50;4865694;29;20332;-75
2022/05/06 07:49:12;;;;;;;;;;;;;;;11.38;100.00;98577.09;4864872;29;19959;-75
2022/05/06 07:51:39;;;;;;;;;;;;;;;11.34;100.00;98570.69;4865260;29;20219;-75
2022/05/06 07:54:08;;;;;;;;;;;;;;;11.31;100.00;98573.47;4855816;29;19955;-75
2022/05/06 07:56:35;;;;;;;;;;;;;;;11.33;100.00;98573.88;4865538;29;20218;-75
2022/05/06 07:59:04;;;;;;;;;;;;;;;11.32;100.00;98580.69;4865310;29;20358;-75
2022/05/06 08:04:32;;;;;;;;;;;;;;;11.26;100.00;98576.66;4851001;29;20279;-75
2022/05/06 08:07:00;;;;;;;;;;;;;;;11.23;100.00;98583.84;4865403;29;19958;-75
2022/05/06 08:09:27;;;;;;;;;;;;;;;11.28;100.00;98591.84;4864610;29;19957;-74
2022/05/06 08:11:54;;;;;;;;;;;;;;;11.17;100.00;98586.22;4864163;29;19966;-74
2022/05/06 08:14:22;;;;;;;;;;;;;;;11.25;100.00;98581.44;4864395;29;19963;-75
2022/05/06 08:16:50;;;;;;;;;;;;;;;11.21;100.00;98589.84;4864441;29;20462;-75
2022/05/06 08:19:22;;;;;;;;;;;;;;;11.32;100.00;98581.44;4864733;29;19956;-75
2022/05/06 08:21:50;;;;;;;;;;;;;;;11.38;100.00;98574.28;4864357;29;19958;-75
2022/05/06 08:24:22;;;;;;;;;;;;;;;11.30;100.00;98575.47;4849083;29;20587;-75
2022/05/06 08:26:50;;;;;;;;;;;;;;;11.21;100.00;98586.22;4857190;29;19974;-75
2022/05/06 08:29:17;;;;;;;;;;;;;;;11.20;100.00;98574.22;4864810;29;19952;-75
2022/05/06 08:31:45;;;;;;;;;;;;;;;11.27;100.00;98590.28;4863743;29;19961;-74
2022/05/06 08:34:12;;;;;;;;;;;;;;;11.23;100.00;98590.25;4864909;29;19961;-75
2022/05/06 08:36:41;;;;;;;;;;;;;;;11.25;100.00;98583.47;4864252;29;19974;-75
2022/05/06 08:39:10;;;;;;;;;;;;;;;11.28;100.00;98594.66;4863914;29;19950;-75
2022/05/06 08:41:37;;;;;;;;;;;;;;;11.26;100.00;98604.63;4864026;29;19956;-75
2022/05/06 08:52:33;;;;;;;;;;;;;;;11.25;100.00;98608.66;4850810;29;19957;-75
2022/05/06 08:55:02;;;;;;;;;;;;;;;11.25;100.00;98623.44;4864173;29;19955;-75
2022/05/06 08:57:30;;;;;;;;;;;;;;;11.19;100.00;98616.63;4864431;29;19959;-75
2022/05/06 08:59:57;;;;;;;;;;;;;;;11.15;100.00;98629.81;4863572;29;19954;-74
2022/05/06 09:02:24;;;;;;;;;;;;;;;11.09;100.00;98629.38;4863557;29;20328;-75
2022/05/06 09:04:52;;;;;;;;;;;;;;;11.02;100.00;98632.16;4863079;29;19958;-75
2022/05/06 09:07:21;;;;;;;;;;;;;;;11.07;100.00;98636.56;4863463;29;19956;-75
2022/05/06 09:10:06;;;;;;;;;;;;;;;11.03;100.00;98639.34;4863499;29;19980;-75
2022/05/06 09:12:44;;;;;;;;;;;;;;;11.01;100.00;98640.91;4862973;29;19948;-74
2022/05/06 09:17:58;;;;;;;;;;;;;;;10.97;100.00;98656.91;4861897;29;19954;-74
2022/05/06 09:20:26;;;;;;;;;;;;;;;10.94;100.00;98646.50;4863301;29;19955;-75
2022/05/06 09:22:55;;;;;;;;;;;;;;;11.05;100.00;98644.56;4854827;29;19967;-74
2022/05/06 09:25:34;;;;;;;;;;;;;;;11.03;100.00;98652.53;4861273;29;19957;-75
2022/05/06 09:28:02;;;;;;;;;;;;;;;11.04;100.00;98645.75;4858308;29;19979;-75
2022/05/06 09:30:30;;;;;;;;;;;;;;;11.05;100.00;98653.72;4854400;29;20373;-74
2022/05/06 09:32:58;;;;;;;;;;;;;;;11.09;100.00;98654.56;4855436;29;19958;-74
2022/05/06 09:35:30;;;;;;;;;;;;;;;11.10;100.00;98658.19;4858718;29;19976;-75
2022/05/06 09:38:03;;;;;;;;;;;;;;;11.11;100.00;98652.19;4859632;29;19964;-74
2022/05/06 09:40:31;;;;;;;;;;;;;;;11.14;100.00;98657.00;4862144;29;19982;-74
2022/05/06 09:43:01;;;;;;;;;;;;;;;11.16;100.00;98648.19;4858179;29;19984;-75
2022/05/06 09:45:28;;;;;;;;;;;;;;;11.12;100.00;98652.97;4862760;29;19961;-75
2022/05/06 09:47:58;;;;;;;;;;;;;;;11.16;100.00;98660.19;4862402;29;19948;-75
2022/05/06 09:50:39;;;;;;;;;;;;;;;11.21;100.00;98656.22;4860723;29;19949;-74
2022/05/06 09:53:08;;;;;;;;;;;;;;;11.25;100.00;98659.03;4855124;29;19949;-74
2022/05/06 09:55:39;;;;;;;;;;;;;;;11.22;100.00;98657.84;4851551;29;19949;-75
2022/05/06 09:58:08;;;;;;;;;;;;;;;11.16;100.00;98665.78;4860545;29;20144;-75
2022/05/06 10:00:37;;;;;;;;;;;;;;;11.19;100.00;98662.22;4862332;29;20348;-75
2022/05/06 10:03:05;;;;;;;;;;;;;;;11.16;100.00;98668.59;4859801;29;19979;-75
2022/05/06 10:05:34;;;;;;;;;;;;;;;11.23;100.00;98665.00;4861570;29;19958;-75
2022/05/06 10:08:06;;;;;;;;;;;;;;;11.22;100.00;98672.59;4859357;29;20353;-75
2022/05/06 10:10:38;;;;;;;;;;;;;;;11.18;100.00;98677.41;4862829;29;19957;-75
2022/05/06 10:13:13;;;;;;;;;;;;;;;11.11;100.00;98665.38;4861481;29;20337;-75
2022/05/06 10:15:40;;;;;;;;;;;;;;;11.11;100.00;98668.97;4858844;29;19955;-75
2022/05/06 10:18:07;;;;;;;;;;;;;;;11.17;100.00;98680.59;4860133;29;19949;-74
2022/05/06 10:20:43;;;;;;;;;;;;;;;11.18;100.00;98671.78;4859839;29;19951;-75
2022/05/06 10:23:15;;;;;;;;;;;;;;;11.20;100.00;98679.78;4860402;29;19970;-74
2022/05/06 10:25:42;;;;;;;;;;;;;;;11.22;100.00;98672.59;4862287;29;19962;-75
2022/05/06 10:34:12;;;;;;;;;;;;;;;11.31;100.00;98675.06;4860206;29;19957;-75
2022/05/06 10:36:43;;;;;;;;;;;;;;;11.33;100.00;98672.66;4861853;29;19950;-75
2022/05/06 10:39:33;;;;;;;;;;;;;;;11.31;100.00;98680.66;4861288;29;19958;-75
2022/05/06 10:42:17;;;;;;;;;;;;;;;11.35;100.00;98675.06;4864887;29;19951;-75
2022/05/06 10:44:48;;;;;;;;;;;;;;;11.34;100.00;98676.28;4865099;29;19959;-75
2022/05/06 10:47:15;;;;;;;;;;;;;;;11.38;100.00;98679.88;4863023;29;19950;-74
2022/05/06 10:49:43;;;;;;;;;;;;;;;11.41;100.00;98679.09;4861801;29;19958;-74
2022/05/06 10:52:13;;;;;;;;;;;;;;;11.45;100.00;98674.28;4861085;29;19962;-75
2022/05/06 10:54:41;;;;;;;;;;;;;;;11.49;100.00;98677.94;4877322;29;19955;-75
2022/05/06 10:57:08;;;;;;;;;;;;;;;11.47;100.00;98671.94;4862491;29;19951;-75
2022/05/06 10:59:49;;;;;;;;;;;;;;;11.43;100.00;98677.50;4858949;29;19980;-75
2022/05/06 11:02:16;;;;;;;;;;;;;;;11.35;100.00;98669.44;4862233;29;19956;-75
2022/05/06 11:04:50;;;;;;;;;;;;;;;11.43;100.00;98676.69;4862382;29;20274;-75
2022/05/06 11:07:18;;;;;;;;;;;;;;;11.42;100.00;98661.88;4862951;29;19986;-75
2022/05/06 11:09:45;;;;;;;;;;;;;;;11.49;100.00;98666.72;4861507;29;19947;-75
2022/05/06 11:12:31;;;;;;;;;;;;;;;11.49;100.00;98672.34;4864404;29;20255;-75
2022/05/06 11:14:59;;;;;;;;;;;;;;;11.54;100.00;98660.75;4875786;29;19952;-75
2022/05/06 11:17:26;;;;;;;;;;;;;;;11.47;100.00;98663.53;4866735;29;19947;-75
2022/05/06 11:19:54;;;;;;;;;;;;;;;11.43;100.00;98671.09;4866461;29;19946;-75
2022/05/06 11:22:23;;;;;;;;;;;;;;;11.55;100.00;98670.75;4866479;29;19973;-75
2022/05/06 11:25:00;;;;;;;;;;;;;;;11.55;100.00;98665.13;4864698;29;19979;-75
2022/05/06 11:27:29;;;;;;;;;;;;;;;11.54;100.00;98672.72;4865640;29;19973;-75
2022/05/06 11:29:58;;;;;;;;;;;;;;;11.62;100.00;98677.16;4866521;29;19959;-75
2022/05/06 11:32:28;;;;;;;;;;;;;;;11.57;100.00;98679.53;4864998;29;19951;-75
2022/05/06 11:35:02;;;;;;;;;;;;;;;11.53;100.00;98676.75;4866284;29;19954;-75
2022/05/06 11:37:30;;;;;;;;;;;;;;;11.56;100.00;98675.97;4850324;29;19952;-75
2022/05/06 11:42:43;;;;;;;;;;;;;;;11.52;100.00;98672.31;4864636;29;20255;-74
2022/05/06 11:48:07;;;;;;;;;;;;;;;11.54;100.00;98683.94;4865031;29;19951;-75
2022/05/06 11:50:36;;;;;;;;;;;;;;;11.57;100.00;98680.34;4851662;29;19960;-75
2022/05/06 11:53:05;;;;;;;;;;;;;;;11.60;100.00;98675.94;4864850;29;19957;-75
2022/05/06 11:55:35;;;;;;;;;;;;;;;11.58;100.00;98676.34;4864439;29;19967;-75
2022/05/06 11:58:05;;;;;;;;;;;;;;;11.63;100.00;98677.97;4865849;29;19953;-75
2022/05/06 12:00:33;;;;;;;;;;;;;;;11.60;100.00;98678.75;4849586;29;19959;-75
2022/05/06 12:03:05;;;;;;;;;;;;;;;11.67;100.00;98682.38;4864673;29;19963;-75
2022/05/06 12:05:38;;;;;;;;;;;;;;;11.66;100.00;98668.78;4865819;29;20051;-75
2022/05/06 12:08:07;;;;;;;;;;;;;;;11.69;100.00;98682.00;4864438;29;20398;-74
2022/05/06 12:10:36;;;;;;;;;;;;;;;11.67;100.00;98675.97;4862018;29;19951;-74
2022/05/06 12:13:06;;;;;;;;;;;;;;;11.68;100.00;98677.63;4863288;29;19949;-74
2022/05/06 12:15:38;;;;;;;;;;;;;;;11.73;100.00;98674.44;4860994;29;19949;-74
2022/05/06 12:18:05;;;;;;;;;;;;;;;11.67;100.00;98673.16;4865016;29;19951;-75
2022/05/06 12:20:33;;;;;;;;;;;;;;;11.74;100.00;98678.81;4865588;29;19953;-75
2022/05/06 12:23:00;;;;;;;;;;;;;;;11.74;100.00;98671.22;4864192;29;19955;-74
2022/05/06 12:25:28;;;;;;;;;;;;;;;11.70;100.00;98678.03;4864373;29;20384;-75
2022/05/06 12:28:04;;;;;;;;;;;;;;;11.77;100.00;98675.22;4864797;29;20263;-74
2022/05/06 12:30:31;;;;;;;;;;;;;;;11.79;100.00;98681.22;4864762;29;19977;-75
2022/05/06 12:33:01;;;;;;;;;;;;;;;11.76;100.00;98674.44;4862466;29;20356;-75
2022/05/06 12:35:29;;;;;;;;;;;;;;;11.70;100.00;98670.41;4864990;29;19955;-74
2022/05/06 12:38:01;;;;;;;;;;;;;;;11.67;100.00;98676.78;4864434;29;20554;-74
2022/05/06 12:40:32;;;;;;;;;;;;;;;11.67;100.00;98678.78;4865178;29;19957;-74
2022/05/06 12:43:06;;;;;;;;;;;;;;;11.75;100.00;98677.63;4864831;29;19954;-75
2022/05/06 12:45:34;;;;;;;;;;;;;;;11.73;100.00;98677.22;4865059;29;20259;-74
2022/05/06 12:50:47;;;;;;;;;;;;;;;11.72;100.00;98684.03;4862044;29;19967;-74
2022/05/06 12:53:15;;;;;;;;;;;;;;;11.70;100.00;98680.81;4861734;29;19957;-74
2022/05/06 12:55:42;;;;;;;;;;;;;;;11.75;100.00;98686.03;4861814;29;20027;-74
2022/05/06 12:58:10;;;;;;;;;;;;;;;11.78;100.00;98686.06;4866336;29;19949;-73
2022/05/06 13:00:39;;;;;;;;;;;;;;;11.75;100.00;98686.03;4863989;29;19954;-73
2022/05/06 13:03:08;;;;;;;;;;;;;;;11.77;100.00;98692.84;4861847;29;20367;-73
2022/05/06 13:05:35;;;;;;;;;;;;;;;11.69;100.00;98687.59;4863450;29;20359;-73
2022/05/06 13:08:06;;;;;;;;;;;;;;;11.72;100.00;98684.03;4863128;29;20274;-73
2022/05/06 13:10:34;;;;;;;;;;;;;;;11.80;100.00;98686.47;4862811;29;19954;-72
2022/05/06 13:13:02;;;;;;;;;;;;;;;11.79;100.00;98684.03;4863054;29;20526;-74
2022/05/06 13:15:30;;;;;;;;;;;;;;;11.76;100.00;98682.81;4862015;29;19964;-74
2022/05/06 13:17:57;;;;;;;;;;;;;;;11.80;100.00;98683.66;4858696;29;19962;-75
2022/05/06 13:20:24;;;;;;;;;;;;;;;11.80;100.00;98691.25;4862878;29;19987;-74
2022/05/06 13:22:52;;;;;;;;;;;;;;;11.79;100.00;98684.84;4863441;29;19960;-75
2022/05/06 13:25:19;;;;;;;;;;;;;;;11.80;100.00;98680.84;4863034;29;19981;-74
2022/05/06 13:27:46;;;;;;;;;;;;;;;11.83;100.00;98684.88;4867835;29;19977;-75
2022/05/06 13:30:13;;;;;;;;;;;;;;;11.81;100.00;98682.44;4863170;29;20340;-75
2022/05/06 13:32:41;;;;;;;;;;;;;;;11.81;100.00;98681.66;4861947;29;19956;-75
2022/05/06 13:35:10;;;;;;;;;;;;;;;11.82;100.00;98680.44;4861377;29;20387;-74
2022/05/06 13:37:37;;;;;;;;;;;;;;;11.81;100.00;98681.66;4837581;29;19959;-74
2022/05/06 13:40:05;;;;;;;;;;;;;;;11.87;100.00;98680.06;4865413;29;19948;-74
2022/05/06 13:42:32;;;;;;;;;;;;;;;11.88;100.00;98681.69;4870494;29;19962;-74
2022/05/06 13:44:59;;;;;;;;;;;;;;;11.82;100.00;98683.25;4869153;29;19965;-75
2022/05/06 13:47:28;;;;;;;;;;;;;;;11.86;100.00;98678.44;4867780;29;19953;-74
2022/05/06 13:49:55;;;;;;;;;;;;;;;11.85;100.00;98680.47;4867929;29;20368;-75
2022/05/06 13:52:25;;;;;;;;;;;;;;;11.86;100.00;98679.25;4862854;29;20359;-74
2022/05/06 13:54:52;;;;;;;;;;;;;;;11.82;100.00;98678.47;4862850;29;19957;-74
2022/05/06 14:00:21;;;;;;;;;;;;;;;11.84;100.00;98681.66;4861831;29;20028;-74
2022/05/06 14:02:48;;;;;;;;;;;;;;;11.83;100.00;98682.84;4861971;29;19950;-74
2022/05/06 14:05:21;;;;;;;;;;;;;;;11.88;100.00;98676.06;4860703;29;19962;-74
2022/05/06 14:07:48;;;;;;;;;;;;;;;11.88;100.00;98680.88;4867188;29;19952;-74
2022/05/06 14:10:15;;;;;;;;;;;;;;;11.81;100.00;98678.88;4864111;29;19951;-75
2022/05/06 14:12:43;;;;;;;;;;;;;;;11.87;100.00;98677.25;4875372;29;19960;-74
2022/05/06 14:15:11;;;;;;;;;;;;;;;11.92;100.00;98681.66;4874096;29;19978;-74
2022/05/06 14:17:38;;;;;;;;;;;;;;;11.83;100.00;98668.06;4865224;29;20261;-75
2022/05/06 14:20:05;;;;;;;;;;;;;;;11.98;100.00;98668.88;4862100;29;19952;-75
2022/05/06 14:22:33;;;;;;;;;;;;;;;11.96;100.00;98671.28;4871150;29;19954;-75
2022/05/06 14:25:00;;;;;;;;;;;;;;;11.90;100.00;98662.47;4869575;29;19997;-74
2022/05/06 14:27:28;;;;;;;;;;;;;;;11.91;100.00;98663.28;4862728;29;19973;-74
2022/05/06 14:29:55;;;;;;;;;;;;;;;11.95;100.00;98664.88;4864243;29;19957;-74
2022/05/06 14:32:22;;;;;;;;;;;;;;;11.99;100.00;98671.28;4864411;29;19954;-74
2022/05/06 14:34:49;;;;;;;;;;;;;;;11.98;100.00;98678.09;4862703;29;19982;-75
2022/05/06 14:37:16;;;;;;;;;;;;;;;12.02;100.00;98667.69;4862725;29;19951;-74
2022/05/06 14:39:44;;;;;;;;;;;;;;;11.99;100.00;98670.47;4868007;29;19969;-74
2022/05/06 14:42:11;;;;;;;;;;;;;;;12.01;100.00;98663.25;4862002;29;20617;-74
2022/05/06 14:44:38;;;;;;;;;;;;;;;12.05;100.00;98669.69;4866482;29;19947;-74
2022/05/06 14:47:05;;;;;;;;;;;;;;;12.00;100.00;98684.09;4862437;29;19962;-74
2022/05/06 14:49:33;;;;;;;;;;;;;;;12.02;100.00;98680.88;4865613;29;20257;-74
2022/05/06 14:52:03;;;;;;;;;;;;;;;11.99;100.00;98671.28;4872071;29;19949;-75
2022/05/06 14:54:30;;;;;;;;;;;;;;;11.97;100.00;98676.47;4868460;29;19950;-75
2022/05/06 14:56:58;;;;;;;;;;;;;;;11.92;100.00;98681.66;4868974;29;19958;-75
2022/05/06 14:59:25;;;;;;;;;;;;;;;12.00;100.00;98678.50;4874951;29;19983;-75
2022/05/06 15:01:52;;;;;;;;;;;;;;;11.97;100.00;98672.88;4871746;29;19957;-74
2022/05/06 15:04:20;;;;;;;;;;;;;;;12.04;100.00;98687.69;4866447;29;20247;-75
2022/05/06 15:06:47;;;;;;;;;;;;;;;12.04;100.00;98684.91;4867358;29;19971;-74
2022/05/06 15:09:19;;;;;;;;;;;;;;;11.94;100.00;98684.88;4865996;29;20251;-74
2022/05/06 15:11:46;;;;;;;;;;;;;;;11.99;100.00;98676.06;4867280;29;20449;-74
2022/05/06 15:14:14;;;;;;;;;;;;;;;11.99;100.00;98688.09;4863710;29;20376;-79
2022/05/06 15:16:41;;;;;;;;;;;;;;;12.08;100.00;98688.50;4864836;29;19950;-75
2022/05/06 15:19:23;;;;;;;;;;;;;;;12.08;100.00;98694.09;4849409;29;20457;-74
2022/05/06 15:21:51;;;;;;;;;;;;;;;12.02;100.00;98687.31;4866530;29;20244;-75
2022/05/06 15:24:21;;;;;;;;;;;;;;;12.02;100.00;98683.69;4866053;29;19949;-75
2022/05/06 15:26:48;;;;;;;;;;;;;;;11.99;100.00;98693.69;4839431;29;20269;-75
2022/05/06 15:29:15;;;;;;;;;;;;;;;11.96;100.00;98694.47;4848953;29;19960;-75
2022/05/06 15:31:42;;;;;;;;;;;;;;;11.95;100.00;98692.09;4850246;29;19982;-74
2022/05/06 15:34:10;;;;;;;;;;;;;;;11.98;100.00;98691.31;4847000;29;19958;-75
2022/05/06 15:36:37;;;;;;;;;;;;;;;11.98;100.00;98697.72;4848913;29;19963;-75
2022/05/06 15:39:04;;;;;;;;;;;;;;;12.02;100.00;98697.69;4847704;29;19954;-75
2022/05/06 15:41:32;;;;;;;;;;;;;;;12.01;100.00;98696.91;4838883;29;19956;-74
2022/05/06 15:43:59;;;;;;;;;;;;;;;11.99;100.00;98696.50;4849185;29;19960;-74
2022/05/06 15:46:26;;;;;;;;;;;;;;;11.97;100.00;98698.09;4845636;29;19974;-75
2022/05/06 15:48:53;;;;;;;;;;;;;;;11.97;100.00;98690.50;4845610;29;19955;-74
2022/05/06 15:51:20;;;;;;;;;;;;;;;12.02;100.00;98692.09;4857372;29;19953;-74
2022/05/06 15:53:48;;;;;;;;;;;;;;;12.01;100.00;98696.09;4848556;29;20231;-74
2022/05/06 15:56:15;;;;;;;;;;;;;;;11.98;100.00;98699.72;4844553;29;19956;-74
2022/05/06 15:58:42;;;;;;;;;;;;;;;11.98;100.00;98700.53;4846462;29;19976;-73
2022/05/06 16:01:10;;;;;;;;;;;;;;;12.00;100.00;98706.53;4848637;29;19949;-74
2022/05/06 16:03:37;;;;;;;;;;;;;;;12.07;100.00;98700.94;4846218;29;19963;-74
2022/05/06 16:06:04;;;;;;;;;;;;;;;12.03;100.00;98700.09;4845643;29;19967;-74
2022/05/06 16:08:35;;;;;;;;;;;;;;;12.12;100.00;98699.72;4829882;29;19956;-74
2022/05/06 16:11:02;;;;;;;;;;;;;;;12.13;100.00;98692.94;4848053;29;19957;-75
2022/05/06 16:13:29;;;;;;;;;;;;;;;12.19;100.00;98699.72;4845647;29;19959;-75
2022/05/06 16:15:57;;;;;;;;;;;;;;;12.05;100.00;98694.91;4847400;29;19958;-75
2022/05/06 16:18:24;;;;;;;;;;;;;;;12.09;100.00;98689.31;4850146;29;19961;-75
2022/05/06 16:20:51;;;;;;;;;;;;;;;12.06;100.00;98693.69;4846526;29;20338;-75
2022/05/06 16:23:18;;;;;;;;;;;;;;;12.14;100.00;98697.31;4844241;29;20253;-76
2022/05/06 16:25:46;;;;;;;;;;;;;;;12.11;100.00;98700.91;4843461;29;19972;-75
2022/05/06 16:28:13;;;;;;;;;;;;;;;12.12;100.00;98703.34;4861961;29;20335;-75
2022/05/06 16:30:40;;;;;;;;;;;;;;;12.10;100.00;98694.53;4863602;29;19986;-75
2022/05/06 16:33:07;;;;;;;;;;;;;;;12.14;100.00;98702.94;4865666;29;19964;-74
2022/05/06 16:38:21;;;;;;;;;;;;;;;12.13;100.00;98704.94;4864341;29;19952;-73
2022/05/06 16:40:50;;;;;;;;;;;;;;;12.14;100.00;98692.53;4864067;29;19949;-74
2022/05/06 16:43:18;;;;;;;;;;;;;;;12.13;100.00;98704.16;4863519;29;19952;-73
2022/05/06 16:45:45;;;;;;;;;;;;;;;12.09;100.00;98700.53;4864189;29;19949;-73
2022/05/06 16:48:13;;;;;;;;;;;;;;;12.13;100.00;98701.34;4863453;29;19959;-73
2022/05/06 16:50:40;;;;;;;;;;;;;;;12.11;100.00;98693.31;4863289;29;19956;-73
2022/05/06 16:53:08;;;;;;;;;;;;;;;12.12;100.00;98696.94;4862383;29;20406;-73
2022/05/06 16:55:35;;;;;;;;;;;;;;;12.10;100.00;98702.94;4861253;29;19949;-73
2022/05/06 16:58:02;;;;;;;;;;;;;;;12.09;100.00;98703.31;4864148;29;19958;-73
2022/05/06 17:00:30;;;;;;;;;;;;;;;12.11;100.00;98703.72;4861752;29;19955;-73
2022/05/06 17:02:57;;;;;;;;;;;;;;;12.12;100.00;98694.13;4863711;29;20081;-73
2022/05/06 17:05:24;;;;;;;;;;;;;;;12.11;100.00;98696.13;4863173;29;19949;-74
2022/05/06 17:07:52;;;;;;;;;;;;;;;12.11;100.00;98707.31;4863568;29;19965;-74
2022/05/06 17:10:19;;;;;;;;;;;;;;;12.03;100.00;98708.50;4861316;29;20264;-73
2022/05/06 17:12:47;;;;;;;;;;;;;;;12.00;100.00;98706.53;4861580;29;19953;-74
2022/05/06 17:15:18;;;;;;;;;;;;;;;11.95;100.00;98708.91;4863055;29;19960;-74
2022/05/06 17:17:47;;;;;;;;;;;;;;;11.98;100.00;98708.13;4863352;29;19958;-76
2022/05/06 17:20:14;;;;;;;;;;;;;;;11.98;100.00;98710.91;4862316;29;19956;-76
2022/05/06 17:22:44;;;;;;;;;;;;;;;12.04;100.00;98707.31;4861217;29;19985;-78
2022/05/06 17:25:13;;;;;;;;;;;;;;;12.00;100.00;98708.50;4861572;29;20657;-76
2022/05/06 17:27:40;;;;;;;;;;;;;;;11.99;100.00;98709.69;4860810;29;19982;-76
2022/05/06 17:30:09;;;;;;;;;;;;;;;11.91;100.00;98708.09;4861133;29;19952;-74
2022/05/06 17:32:36;;;;;;;;;;;;;;;11.88;100.00;98702.06;4861702;29;19948;-76
2022/05/06 17:35:04;;;;;;;;;;;;;;;11.92;100.00;98709.69;4863238;29;19953;-73
2022/05/06 17:37:31;;;;;;;;;;;;;;;11.85;100.00;98722.50;4859788;29;19951;-73
2022/05/06 17:39:58;;;;;;;;;;;;;;;11.88;100.00;98715.31;4861885;29;19955;-75
2022/05/06 17:42:26;;;;;;;;;;;;;;;11.87;100.00;98722.09;4860916;29;19977;-74
2022/05/06 17:44:54;;;;;;;;;;;;;;;11.77;100.00;98728.47;4867494;29;19950;-76
2022/05/06 17:47:21;;;;;;;;;;;;;;;11.74;100.00;98726.44;4860702;29;19971;-74
2022/05/06 17:49:49;;;;;;;;;;;;;;;11.73;100.00;98734.06;4859841;29;19958;-75
2022/05/06 17:52:16;;;;;;;;;;;;;;;11.71;100.00;98730.84;4862613;29;19979;-73
2022/05/06 17:54:44;;;;;;;;;;;;;;;11.68;100.00;98740.06;4861640;29;20011;-72